Pana, Illinois
Current Conditions -  °F | °C
As of 2:35 PM on Friday 28 Nov 2014 (Local Time) from KTAZ Reporting Station
Clear Clear  
Wind Chill: -3°   Ceiling: Unl
Heat Index:   Visibility: 10mi
Dew Point:   Wind: 18mph
Humidity: 81%   Direction: 170°S
Pressure: 30"   Gusts: 26mph
Location:  39.39°N, 89.08°W
Report Text: KTAZ 282035Z AUTO 17016G23KT 10SM CLR 03/00 A3000 RMK AO2
Loading
Personal Weather Stations






























Interactive Weather Map New forecast layout! Learn more

10-Day Weather Forecast

Advertisements
Track Severe Weather on mobile